sensor_id;sensor_type;location;lat;lon;timestamp;P1;durP1;ratioP1;P2;durP2;ratioP2
22924;SDS011;11628;51.072;3.712;2023-05-01T00:00:06;4.65;;;4.25;;
22924;SDS011;11628;51.072;3.712;2023-05-01T00:02:33;5.20;;;4.55;;
22924;SDS011;11628;51.072;3.712;2023-05-01T00:05:00;5.00;;;3.72;;
22924;SDS011;11628;51.072;3.712;2023-05-01T00:07:26;5.65;;;4.03;;
22924;SDS011;11628;51.072;3.712;2023-05-01T00:09:58;4.82;;;4.32;;
22924;SDS011;11628;51.072;3.712;2023-05-01T00:12:24;4.68;;;4.28;;
22924;SDS011;11628;51.072;3.712;2023-05-01T00:14:51;6.43;;;5.00;;
22924;SDS011;11628;51.072;3.712;2023-05-01T00:17:18;5.38;;;4.13;;
22924;SDS011;11628;51.072;3.712;2023-05-01T00:19:44;5.28;;;4.75;;
22924;SDS011;11628;51.072;3.712;2023-05-01T00:22:09;5.88;;;4.30;;
22924;SDS011;11628;51.072;3.712;2023-05-01T00:24:35;4.78;;;4.38;;
22924;SDS011;11628;51.072;3.712;2023-05-01T00:27:01;7.15;;;4.35;;
22924;SDS011;11628;51.072;3.712;2023-05-01T00:29:27;5.85;;;4.15;;
22924;SDS011;11628;51.072;3.712;2023-05-01T00:31:53;4.95;;;4.45;;
22924;SDS011;11628;51.072;3.712;2023-05-01T00:34:19;4.60;;;4.15;;
22924;SDS011;11628;51.072;3.712;2023-05-01T00:36:45;4.78;;;4.28;;
22924;SDS011;11628;51.072;3.712;2023-05-01T00:39:11;5.45;;;4.85;;
22924;SDS011;11628;51.072;3.712;2023-05-01T00:41:37;6.90;;;4.18;;
22924;SDS011;11628;51.072;3.712;2023-05-01T00:44:02;7.45;;;4.50;;
22924;SDS011;11628;51.072;3.712;2023-05-01T00:46:28;6.57;;;4.90;;
22924;SDS011;11628;51.072;3.712;2023-05-01T00:48:56;7.38;;;4.72;;
22924;SDS011;11628;51.072;3.712;2023-05-01T00:51:22;5.10;;;4.60;;
22924;SDS011;11628;51.072;3.712;2023-05-01T00:53:48;4.93;;;3.85;;
22924;SDS011;11628;51.072;3.712;2023-05-01T00:56:14;4.90;;;4.47;;
22924;SDS011;11628;51.072;3.712;2023-05-01T00:58:41;5.43;;;4.93;;
22924;SDS011;11628;51.072;3.712;2023-05-01T01:01:06;4.85;;;4.38;;
22924;SDS011;11628;51.072;3.712;2023-05-01T01:03:34;5.15;;;4.65;;
22924;SDS011;11628;51.072;3.712;2023-05-01T01:06:11;5.40;;;4.35;;
22924;SDS011;11628;51.072;3.712;2023-05-01T01:11:20;6.40;;;4.53;;
22924;SDS011;11628;51.072;3.712;2023-05-01T01:13:58;5.20;;;4.68;;
22924;SDS011;11628;51.072;3.712;2023-05-01T01:16:32;4.70;;;4.30;;
22924;SDS011;11628;51.072;3.712;2023-05-01T01:21:50;4.93;;;4.50;;
22924;SDS011;11628;51.072;3.712;2023-05-01T01:24:33;6.43;;;5.15;;
22924;SDS011;11628;51.072;3.712;2023-05-01T01:36:00;4.93;;;4.50;;
22924;SDS011;11628;51.072;3.712;2023-05-01T01:38:41;5.28;;;4.72;;
22924;SDS011;11628;51.072;3.712;2023-05-01T01:41:14;5.00;;;4.50;;
22924;SDS011;11628;51.072;3.712;2023-05-01T01:43:46;6.05;;;4.50;;
22924;SDS011;11628;51.072;3.712;2023-05-01T01:46:19;4.47;;;4.07;;
22924;SDS011;11628;51.072;3.712;2023-05-01T01:48:47;5.40;;;4.68;;
22924;SDS011;11628;51.072;3.712;2023-05-01T01:51:16;4.95;;;4.38;;
22924;SDS011;11628;51.072;3.712;2023-05-01T01:53:44;6.57;;;4.60;;
22924;SDS011;11628;51.072;3.712;2023-05-01T01:56:13;6.13;;;5.15;;
22924;SDS011;11628;51.072;3.712;2023-05-01T01:58:41;5.50;;;4.45;;
22924;SDS011;11628;51.072;3.712;2023-05-01T02:01:08;5.35;;;4.75;;
22924;SDS011;11628;51.072;3.712;2023-05-01T02:03:34;5.95;;;4.85;;
22924;SDS011;11628;51.072;3.712;2023-05-01T02:06:03;5.68;;;5.00;;
22924;SDS011;11628;51.072;3.712;2023-05-01T02:08:29;5.60;;;5.00;;
22924;SDS011;11628;51.072;3.712;2023-05-01T02:10:57;5.22;;;4.80;;
22924;SDS011;11628;51.072;3.712;2023-05-01T02:13:28;5.97;;;4.55;;
22924;SDS011;11628;51.072;3.712;2023-05-01T02:15:56;6.75;;;4.45;;
22924;SDS011;11628;51.072;3.712;2023-05-01T02:18:23;6.47;;;5.05;;
22924;SDS011;11628;51.072;3.712;2023-05-01T02:20:53;4.82;;;4.32;;
22924;SDS011;11628;51.072;3.712;2023-05-01T02:23:22;4.70;;;4.03;;
22924;SDS011;11628;51.072;3.712;2023-05-01T02:25:50;4.90;;;4.40;;
22924;SDS011;11628;51.072;3.712;2023-05-01T02:28:20;4.65;;;4.15;;
22924;SDS011;11628;51.072;3.712;2023-05-01T02:30:48;5.72;;;4.25;;
22924;SDS011;11628;51.072;3.712;2023-05-01T02:33:14;5.07;;;4.22;;
22924;SDS011;11628;51.072;3.712;2023-05-01T02:35:40;5.93;;;4.22;;
22924;SDS011;11628;51.072;3.712;2023-05-01T02:38:08;5.25;;;3.92;;
22924;SDS011;11628;51.072;3.712;2023-05-01T02:40:34;5.07;;;4.47;;
22924;SDS011;11628;51.072;3.712;2023-05-01T02:43:03;5.55;;;4.55;;
22924;SDS011;11628;51.072;3.712;2023-05-01T02:45:33;7.03;;;4.25;;
22924;SDS011;11628;51.072;3.712;2023-05-01T02:48:03;4.15;;;3.80;;
22924;SDS011;11628;51.072;3.712;2023-05-01T02:50:31;6.05;;;4.10;;
22924;SDS011;11628;51.072;3.712;2023-05-01T02:52:58;4.57;;;4.10;;
22924;SDS011;11628;51.072;3.712;2023-05-01T02:55:25;4.60;;;4.13;;
22924;SDS011;11628;51.072;3.712;2023-05-01T02:57:51;6.05;;;4.07;;
22924;SDS011;11628;51.072;3.712;2023-05-01T03:00:17;5.80;;;4.50;;
22924;SDS011;11628;51.072;3.712;2023-05-01T03:02:43;6.20;;;4.60;;
22924;SDS011;11628;51.072;3.712;2023-05-01T03:05:10;7.20;;;5.10;;
22924;SDS011;11628;51.072;3.712;2023-05-01T03:07:36;5.50;;;5.00;;
22924;SDS011;11628;51.072;3.712;2023-05-01T03:10:02;5.13;;;4.47;;
22924;SDS011;11628;51.072;3.712;2023-05-01T03:12:31;5.00;;;4.22;;
22924;SDS011;11628;51.072;3.712;2023-05-01T03:14:57;6.55;;;3.90;;
22924;SDS011;11628;51.072;3.712;2023-05-01T03:17:22;6.10;;;4.22;;
22924;SDS011;11628;51.072;3.712;2023-05-01T03:19:48;5.82;;;3.85;;
22924;SDS011;11628;51.072;3.712;2023-05-01T03:22:14;5.00;;;4.43;;
22924;SDS011;11628;51.072;3.712;2023-05-01T03:24:40;5.82;;;4.20;;
22924;SDS011;11628;51.072;3.712;2023-05-01T03:27:06;5.60;;;4.50;;
22924;SDS011;11628;51.072;3.712;2023-05-01T03:29:32;5.10;;;4.65;;
22924;SDS011;11628;51.072;3.712;2023-05-01T03:32:03;6.97;;;4.93;;
22924;SDS011;11628;51.072;3.712;2023-05-01T03:34:29;4.90;;;4.43;;
22924;SDS011;11628;51.072;3.712;2023-05-01T03:36:55;6.43;;;5.00;;
22924;SDS011;11628;51.072;3.712;2023-05-01T03:39:21;7.32;;;4.40;;
22924;SDS011;11628;51.072;3.712;2023-05-01T03:41:47;7.18;;;5.10;;
22924;SDS011;11628;51.072;3.712;2023-05-01T03:44:12;5.97;;;5.28;;
22924;SDS011;11628;51.072;3.712;2023-05-01T03:46:38;6.05;;;5.45;;
22924;SDS011;11628;51.072;3.712;2023-05-01T03:49:04;8.05;;;5.68;;
22924;SDS011;11628;51.072;3.712;2023-05-01T03:51:30;5.57;;;5.07;;
22924;SDS011;11628;51.072;3.712;2023-05-01T03:53:56;6.68;;;5.97;;
22924;SDS011;11628;51.072;3.712;2023-05-01T03:56:23;6.72;;;6.13;;
22924;SDS011;11628;51.072;3.712;2023-05-01T03:58:52;7.78;;;6.30;;
22924;SDS011;11628;51.072;3.712;2023-05-01T04:01:18;7.93;;;7.05;;
22924;SDS011;11628;51.072;3.712;2023-05-01T04:03:44;7.70;;;6.90;;
22924;SDS011;11628;51.072;3.712;2023-05-01T04:06:10;8.13;;;7.28;;
22924;SDS011;11628;51.072;3.712;2023-05-01T04:08:36;7.50;;;6.75;;
22924;SDS011;11628;51.072;3.712;2023-05-01T04:11:02;8.30;;;7.55;;
22924;SDS011;11628;51.072;3.712;2023-05-01T04:13:28;8.05;;;7.28;;
22924;SDS011;11628;51.072;3.712;2023-05-01T04:15:54;7.90;;;7.18;;
22924;SDS011;11628;51.072;3.712;2023-05-01T04:18:21;8.32;;;7.50;;
22924;SDS011;11628;51.072;3.712;2023-05-01T04:20:47;8.40;;;7.70;;
22924;SDS011;11628;51.072;3.712;2023-05-01T04:23:13;9.55;;;8.70;;
22924;SDS011;11628;51.072;3.712;2023-05-01T04:25:38;9.63;;;8.70;;
22924;SDS011;11628;51.072;3.712;2023-05-01T04:28:04;8.90;;;8.15;;
22924;SDS011;11628;51.072;3.712;2023-05-01T04:30:30;11.18;;;10.02;;
22924;SDS011;11628;51.072;3.712;2023-05-01T04:32:56;11.52;;;9.15;;
22924;SDS011;11628;51.072;3.712;2023-05-01T04:35:25;10.75;;;9.13;;
22924;SDS011;11628;51.072;3.712;2023-05-01T04:37:51;10.15;;;9.35;;
22924;SDS011;11628;51.072;3.712;2023-05-01T04:40:17;10.50;;;9.40;;
22924;SDS011;11628;51.072;3.712;2023-05-01T04:42:42;11.25;;;10.25;;
22924;SDS011;11628;51.072;3.712;2023-05-01T04:45:08;12.75;;;11.38;;
22924;SDS011;11628;51.072;3.712;2023-05-01T04:47:34;12.75;;;11.55;;
22924;SDS011;11628;51.072;3.712;2023-05-01T04:50:00;12.77;;;11.50;;
22924;SDS011;11628;51.072;3.712;2023-05-01T04:52:26;14.10;;;12.80;;
22924;SDS011;11628;51.072;3.712;2023-05-01T04:54:52;15.40;;;14.07;;
22924;SDS011;11628;51.072;3.712;2023-05-01T04:57:18;17.60;;;16.00;;
22924;SDS011;11628;51.072;3.712;2023-05-01T04:59:43;16.75;;;15.10;;
22924;SDS011;11628;51.072;3.712;2023-05-01T05:02:09;18.27;;;16.48;;
22924;SDS011;11628;51.072;3.712;2023-05-01T05:04:35;20.50;;;18.60;;
22924;SDS011;11628;51.072;3.712;2023-05-01T05:07:01;21.65;;;19.58;;
22924;SDS011;11628;51.072;3.712;2023-05-01T05:09:27;22.92;;;20.52;;
22924;SDS011;11628;51.072;3.712;2023-05-01T05:11:52;22.85;;;20.52;;
22924;SDS011;11628;51.072;3.712;2023-05-01T05:14:18;24.77;;;22.35;;
22924;SDS011;11628;51.072;3.712;2023-05-01T05:16:44;24.58;;;22.27;;
22924;SDS011;11628;51.072;3.712;2023-05-01T05:19:09;22.95;;;20.58;;
22924;SDS011;11628;51.072;3.712;2023-05-01T05:21:35;22.83;;;20.52;;
22924;SDS011;11628;51.072;3.712;2023-05-01T05:24:01;21.98;;;19.98;;
22924;SDS011;11628;51.072;3.712;2023-05-01T05:26:27;20.77;;;18.73;;
22924;SDS011;11628;51.072;3.712;2023-05-01T05:28:52;22.00;;;19.98;;
22924;SDS011;11628;51.072;3.712;2023-05-01T05:31:18;22.02;;;20.08;;
22924;SDS011;11628;51.072;3.712;2023-05-01T05:33:44;24.38;;;22.13;;
22924;SDS011;11628;51.072;3.712;2023-05-01T05:36:10;25.58;;;23.15;;
22924;SDS011;11628;51.072;3.712;2023-05-01T05:38:36;26.75;;;24.20;;
22924;SDS011;11628;51.072;3.712;2023-05-01T05:41:03;27.42;;;24.52;;
22924;SDS011;11628;51.072;3.712;2023-05-01T05:43:28;27.98;;;24.95;;
22924;SDS011;11628;51.072;3.712;2023-05-01T05:45:57;28.60;;;25.63;;
22924;SDS011;11628;51.072;3.712;2023-05-01T05:48:23;29.92;;;26.88;;
22924;SDS011;11628;51.072;3.712;2023-05-01T05:50:49;31.98;;;26.92;;
22924;SDS011;11628;51.072;3.712;2023-05-01T05:53:16;32.70;;;27.42;;
22924;SDS011;11628;51.072;3.712;2023-05-01T05:55:42;32.70;;;29.15;;
22924;SDS011;11628;51.072;3.712;2023-05-01T05:58:10;35.50;;;31.60;;
22924;SDS011;11628;51.072;3.712;2023-05-01T06:00:35;37.70;;;32.10;;
22924;SDS011;11628;51.072;3.712;2023-05-01T06:03:01;35.15;;;31.45;;
22924;SDS011;11628;51.072;3.712;2023-05-01T06:05:27;37.90;;;32.35;;
22924;SDS011;11628;51.072;3.712;2023-05-01T06:07:53;40.67;;;33.17;;
22924;SDS011;11628;51.072;3.712;2023-05-01T06:10:19;38.65;;;33.88;;
22924;SDS011;11628;51.072;3.712;2023-05-01T06:12:45;40.20;;;33.72;;
22924;SDS011;11628;51.072;3.712;2023-05-01T06:15:11;42.17;;;34.75;;
22924;SDS011;11628;51.072;3.712;2023-05-01T06:17:40;42.75;;;35.65;;
22924;SDS011;11628;51.072;3.712;2023-05-01T06:20:07;42.45;;;34.55;;
22924;SDS011;11628;51.072;3.712;2023-05-01T06:22:33;43.70;;;35.47;;
22924;SDS011;11628;51.072;3.712;2023-05-01T06:24:59;45.38;;;36.22;;
22924;SDS011;11628;51.072;3.712;2023-05-01T06:27:25;44.90;;;37.20;;
22924;SDS011;11628;51.072;3.712;2023-05-01T06:29:51;45.97;;;37.03;;
22924;SDS011;11628;51.072;3.712;2023-05-01T06:32:17;45.28;;;37.17;;
22924;SDS011;11628;51.072;3.712;2023-05-01T06:34:42;49.63;;;38.97;;
22924;SDS011;11628;51.072;3.712;2023-05-01T06:37:08;47.50;;;38.13;;
22924;SDS011;11628;51.072;3.712;2023-05-01T06:39:34;43.83;;;36.75;;
22924;SDS011;11628;51.072;3.712;2023-05-01T06:42:00;45.58;;;37.47;;
22924;SDS011;11628;51.072;3.712;2023-05-01T06:44:27;47.65;;;38.38;;
22924;SDS011;11628;51.072;3.712;2023-05-01T06:46:53;46.20;;;36.55;;
22924;SDS011;11628;51.072;3.712;2023-05-01T06:49:19;44.60;;;36.88;;
22924;SDS011;11628;51.072;3.712;2023-05-01T06:51:44;45.47;;;36.90;;
22924;SDS011;11628;51.072;3.712;2023-05-01T06:54:10;45.10;;;35.90;;
22924;SDS011;11628;51.072;3.712;2023-05-01T06:56:36;45.90;;;37.13;;
22924;SDS011;11628;51.072;3.712;2023-05-01T06:59:01;45.70;;;37.22;;
22924;SDS011;11628;51.072;3.712;2023-05-01T07:01:28;45.05;;;37.45;;
22924;SDS011;11628;51.072;3.712;2023-05-01T07:03:53;40.10;;;35.17;;
22924;SDS011;11628;51.072;3.712;2023-05-01T07:06:19;41.70;;;34.90;;
22924;SDS011;11628;51.072;3.712;2023-05-01T07:08:45;42.15;;;34.65;;
22924;SDS011;11628;51.072;3.712;2023-05-01T07:11:11;39.10;;;32.25;;
22924;SDS011;11628;51.072;3.712;2023-05-01T07:13:37;42.70;;;35.35;;
22924;SDS011;11628;51.072;3.712;2023-05-01T07:16:03;40.72;;;34.65;;
22924;SDS011;11628;51.072;3.712;2023-05-01T07:18:28;36.72;;;32.28;;
22924;SDS011;11628;51.072;3.712;2023-05-01T07:20:54;36.38;;;31.73;;
22924;SDS011;11628;51.072;3.712;2023-05-01T07:23:20;39.53;;;32.25;;
22924;SDS011;11628;51.072;3.712;2023-05-01T07:25:47;37.13;;;31.25;;
22924;SDS011;11628;51.072;3.712;2023-05-01T07:28:13;36.20;;;31.33;;
22924;SDS011;11628;51.072;3.712;2023-05-01T07:30:39;39.78;;;31.40;;
22924;SDS011;11628;51.072;3.712;2023-05-01T07:33:05;35.75;;;30.77;;
22924;SDS011;11628;51.072;3.712;2023-05-01T07:35:30;37.78;;;31.75;;
22924;SDS011;11628;51.072;3.712;2023-05-01T07:37:59;33.97;;;28.48;;
22924;SDS011;11628;51.072;3.712;2023-05-01T07:40:25;31.85;;;28.35;;
22924;SDS011;11628;51.072;3.712;2023-05-01T07:42:50;38.75;;;31.25;;
22924;SDS011;11628;51.072;3.712;2023-05-01T07:45:16;32.55;;;28.50;;
22924;SDS011;11628;51.072;3.712;2023-05-01T07:47:42;33.92;;;29.45;;
22924;SDS011;11628;51.072;3.712;2023-05-01T07:50:11;33.47;;;29.27;;
22924;SDS011;11628;51.072;3.712;2023-05-01T07:52:37;30.27;;;27.08;;
22924;SDS011;11628;51.072;3.712;2023-05-01T07:55:03;32.83;;;29.27;;
22924;SDS011;11628;51.072;3.712;2023-05-01T07:57:29;44.25;;;36.08;;
22924;SDS011;11628;51.072;3.712;2023-05-01T07:59:57;65.22;;;52.92;;
22924;SDS011;11628;51.072;3.712;2023-05-01T08:02:23;35.20;;;29.27;;
22924;SDS011;11628;51.072;3.712;2023-05-01T08:04:49;31.70;;;27.70;;
22924;SDS011;11628;51.072;3.712;2023-05-01T08:07:15;31.08;;;27.05;;
22924;SDS011;11628;51.072;3.712;2023-05-01T08:09:41;32.40;;;28.23;;
22924;SDS011;11628;51.072;3.712;2023-05-01T08:12:07;29.77;;;26.63;;
22924;SDS011;11628;51.072;3.712;2023-05-01T08:14:32;28.17;;;25.20;;
22924;SDS011;11628;51.072;3.712;2023-05-01T08:16:58;27.25;;;22.52;;
22924;SDS011;11628;51.072;3.712;2023-05-01T08:19:24;24.27;;;21.77;;
22924;SDS011;11628;51.072;3.712;2023-05-01T08:21:51;19.20;;;17.20;;
22924;SDS011;11628;51.072;3.712;2023-05-01T08:24:17;18.45;;;16.02;;
22924;SDS011;11628;51.072;3.712;2023-05-01T08:26:43;19.40;;;16.60;;
22924;SDS011;11628;51.072;3.712;2023-05-01T08:29:09;18.23;;;16.35;;
22924;SDS011;11628;51.072;3.712;2023-05-01T08:31:35;18.58;;;16.40;;
22924;SDS011;11628;51.072;3.712;2023-05-01T08:34:03;20.10;;;16.40;;
22924;SDS011;11628;51.072;3.712;2023-05-01T08:36:29;18.20;;;16.30;;
22924;SDS011;11628;51.072;3.712;2023-05-01T08:38:55;20.20;;;15.50;;
22924;SDS011;11628;51.072;3.712;2023-05-01T08:41:21;20.17;;;15.52;;
22924;SDS011;11628;51.072;3.712;2023-05-01T08:43:48;18.77;;;16.48;;
22924;SDS011;11628;51.072;3.712;2023-05-01T08:46:33;18.27;;;16.02;;
22924;SDS011;11628;51.072;3.712;2023-05-01T08:49:08;17.30;;;15.30;;
22924;SDS011;11628;51.072;3.712;2023-05-01T08:51:39;15.13;;;13.52;;
22924;SDS011;11628;51.072;3.712;2023-05-01T08:54:09;16.30;;;13.85;;
22924;SDS011;11628;51.072;3.712;2023-05-01T08:56:36;15.95;;;14.30;;
22924;SDS011;11628;51.072;3.712;2023-05-01T08:59:03;15.80;;;13.85;;
22924;SDS011;11628;51.072;3.712;2023-05-01T09:01:29;15.98;;;14.30;;
22924;SDS011;11628;51.072;3.712;2023-05-01T09:03:57;16.67;;;14.18;;
22924;SDS011;11628;51.072;3.712;2023-05-01T09:06:27;15.60;;;13.48;;
22924;SDS011;11628;51.072;3.712;2023-05-01T09:08:54;18.05;;;13.02;;
22924;SDS011;11628;51.072;3.712;2023-05-01T09:11:20;13.75;;;12.30;;
22924;SDS011;11628;51.072;3.712;2023-05-01T09:13:47;13.40;;;12.00;;
22924;SDS011;11628;51.072;3.712;2023-05-01T09:16:12;13.82;;;12.38;;
22924;SDS011;11628;51.072;3.712;2023-05-01T09:18:38;14.60;;;13.10;;
22924;SDS011;11628;51.072;3.712;2023-05-01T09:21:05;14.32;;;12.82;;
22924;SDS011;11628;51.072;3.712;2023-05-01T09:23:31;15.32;;;12.77;;
22924;SDS011;11628;51.072;3.712;2023-05-01T09:25:59;13.77;;;12.48;;
22924;SDS011;11628;51.072;3.712;2023-05-01T09:28:39;13.50;;;12.13;;
22924;SDS011;11628;51.072;3.712;2023-05-01T09:33:54;14.70;;;12.32;;
22924;SDS011;11628;51.072;3.712;2023-05-01T09:36:22;14.77;;;13.20;;
22924;SDS011;11628;51.072;3.712;2023-05-01T09:38:49;14.68;;;13.27;;
22924;SDS011;11628;51.072;3.712;2023-05-01T09:41:15;15.75;;;13.85;;
22924;SDS011;11628;51.072;3.712;2023-05-01T09:43:41;15.15;;;13.65;;
22924;SDS011;11628;51.072;3.712;2023-05-01T09:46:14;13.82;;;12.43;;
22924;SDS011;11628;51.072;3.712;2023-05-01T09:48:41;14.82;;;13.38;;
22924;SDS011;11628;51.072;3.712;2023-05-01T09:51:20;15.20;;;13.40;;
22924;SDS011;11628;51.072;3.712;2023-05-01T09:54:00;14.52;;;13.02;;
22924;SDS011;11628;51.072;3.712;2023-05-01T09:56:27;14.13;;;12.70;;
22924;SDS011;11628;51.072;3.712;2023-05-01T09:58:56;15.95;;;13.30;;
22924;SDS011;11628;51.072;3.712;2023-05-01T10:01:37;15.45;;;13.73;;
22924;SDS011;11628;51.072;3.712;2023-05-01T10:04:03;15.65;;;13.55;;
22924;SDS011;11628;51.072;3.712;2023-05-01T10:06:29;15.50;;;13.90;;
22924;SDS011;11628;51.072;3.712;2023-05-01T10:08:56;15.57;;;14.07;;
22924;SDS011;11628;51.072;3.712;2023-05-01T10:11:22;17.05;;;14.80;;
22924;SDS011;11628;51.072;3.712;2023-05-01T10:14:07;16.27;;;14.57;;
22924;SDS011;11628;51.072;3.712;2023-05-01T10:16:34;15.23;;;13.57;;
22924;SDS011;11628;51.072;3.712;2023-05-01T10:19:01;15.20;;;13.80;;
22924;SDS011;11628;51.072;3.712;2023-05-01T10:21:28;16.15;;;14.18;;
22924;SDS011;11628;51.072;3.712;2023-05-01T10:23:54;16.65;;;15.05;;
22924;SDS011;11628;51.072;3.712;2023-05-01T10:26:21;16.20;;;14.60;;
22924;SDS011;11628;51.072;3.712;2023-05-01T10:28:47;15.57;;;13.88;;
22924;SDS011;11628;51.072;3.712;2023-05-01T10:31:14;15.20;;;13.70;;
22924;SDS011;11628;51.072;3.712;2023-05-01T10:33:41;15.32;;;13.93;;
22924;SDS011;11628;51.072;3.712;2023-05-01T10:36:10;15.88;;;14.05;;
22924;SDS011;11628;51.072;3.712;2023-05-01T10:38:44;16.92;;;15.23;;
22924;SDS011;11628;51.072;3.712;2023-05-01T10:41:13;15.57;;;14.07;;
22924;SDS011;11628;51.072;3.712;2023-05-01T10:46:47;15.93;;;14.23;;
22924;SDS011;11628;51.072;3.712;2023-05-01T10:49:13;17.35;;;15.60;;
22924;SDS011;11628;51.072;3.712;2023-05-01T10:54:27;17.13;;;15.43;;
22924;SDS011;11628;51.072;3.712;2023-05-01T10:56:54;17.05;;;15.32;;
22924;SDS011;11628;51.072;3.712;2023-05-01T10:59:22;15.32;;;13.93;;
22924;SDS011;11628;51.072;3.712;2023-05-01T11:01:49;16.45;;;14.82;;
22924;SDS011;11628;51.072;3.712;2023-05-01T11:15:10;19.05;;;16.83;;
22924;SDS011;11628;51.072;3.712;2023-05-01T11:20:10;18.92;;;16.73;;
22924;SDS011;11628;51.072;3.712;2023-05-01T11:22:51;20.17;;;18.08;;
22924;SDS011;11628;51.072;3.712;2023-05-01T11:25:18;19.48;;;17.50;;
22924;SDS011;11628;51.072;3.712;2023-05-01T11:27:48;21.20;;;18.98;;
22924;SDS011;11628;51.072;3.712;2023-05-01T11:30:16;21.13;;;18.92;;
22924;SDS011;11628;51.072;3.712;2023-05-01T11:32:43;20.25;;;18.23;;
22924;SDS011;11628;51.072;3.712;2023-05-01T11:35:17;19.65;;;17.70;;
22924;SDS011;11628;51.072;3.712;2023-05-01T11:37:45;18.27;;;16.35;;
22924;SDS011;11628;51.072;3.712;2023-05-01T11:40:20;17.77;;;15.48;;
22924;SDS011;11628;51.072;3.712;2023-05-01T11:42:51;16.13;;;14.55;;
22924;SDS011;11628;51.072;3.712;2023-05-01T11:45:28;18.77;;;16.80;;
22924;SDS011;11628;51.072;3.712;2023-05-01T11:47:54;18.42;;;16.83;;
22924;SDS011;11628;51.072;3.712;2023-05-01T11:50:20;20.00;;;18.08;;
22924;SDS011;11628;51.072;3.712;2023-05-01T11:52:50;19.25;;;17.40;;
22924;SDS011;11628;51.072;3.712;2023-05-01T11:55:32;19.70;;;17.67;;
22924;SDS011;11628;51.072;3.712;2023-05-01T11:57:58;19.02;;;17.13;;
22924;SDS011;11628;51.072;3.712;2023-05-01T12:00:26;19.27;;;17.30;;
22924;SDS011;11628;51.072;3.712;2023-05-01T12:03:03;19.15;;;17.23;;
22924;SDS011;11628;51.072;3.712;2023-05-01T12:05:35;17.98;;;16.27;;
22924;SDS011;11628;51.072;3.712;2023-05-01T12:08:15;19.45;;;17.50;;
22924;SDS011;11628;51.072;3.712;2023-05-01T12:10:46;17.83;;;16.02;;
22924;SDS011;11628;51.072;3.712;2023-05-01T12:13:13;18.05;;;16.20;;
22924;SDS011;11628;51.072;3.712;2023-05-01T12:15:44;18.08;;;16.25;;
22924;SDS011;11628;51.072;3.712;2023-05-01T12:18:14;18.13;;;16.25;;
22924;SDS011;11628;51.072;3.712;2023-05-01T12:23:08;15.63;;;14.23;;
22924;SDS011;11628;51.072;3.712;2023-05-01T12:25:35;16.30;;;14.70;;
22924;SDS011;11628;51.072;3.712;2023-05-01T12:28:07;14.30;;;13.00;;
22924;SDS011;11628;51.072;3.712;2023-05-01T12:30:44;15.10;;;13.60;;
22924;SDS011;11628;51.072;3.712;2023-05-01T12:35:43;16.77;;;13.82;;
22924;SDS011;11628;51.072;3.712;2023-05-01T12:38:20;15.00;;;13.45;;
22924;SDS011;11628;51.072;3.712;2023-05-01T12:45:47;15.80;;;14.20;;
22924;SDS011;11628;51.072;3.712;2023-05-01T12:48:16;15.55;;;14.07;;
22924;SDS011;11628;51.072;3.712;2023-05-01T12:50:43;14.88;;;13.43;;
22924;SDS011;11628;51.072;3.712;2023-05-01T12:53:10;15.98;;;14.18;;
22924;SDS011;11628;51.072;3.712;2023-05-01T12:55:43;14.98;;;13.38;;
22924;SDS011;11628;51.072;3.712;2023-05-01T12:58:10;21.50;;;19.20;;
22924;SDS011;11628;51.072;3.712;2023-05-01T13:00:52;20.98;;;19.08;;
22924;SDS011;11628;51.072;3.712;2023-05-01T13:05:52;16.70;;;15.13;;
22924;SDS011;11628;51.072;3.712;2023-05-01T13:08:30;16.15;;;14.55;;
22924;SDS011;11628;51.072;3.712;2023-05-01T13:10:58;19.48;;;17.42;;
22924;SDS011;11628;51.072;3.712;2023-05-01T13:13:25;20.52;;;15.57;;
22924;SDS011;11628;51.072;3.712;2023-05-01T13:15:52;17.73;;;15.93;;
22924;SDS011;11628;51.072;3.712;2023-05-01T13:18:18;17.48;;;15.35;;
22924;SDS011;11628;51.072;3.712;2023-05-01T13:20:44;15.50;;;13.88;;
22924;SDS011;11628;51.072;3.712;2023-05-01T13:23:10;16.70;;;15.00;;
22924;SDS011;11628;51.072;3.712;2023-05-01T13:25:39;16.80;;;15.20;;
22924;SDS011;11628;51.072;3.712;2023-05-01T13:28:05;17.85;;;16.25;;
22924;SDS011;11628;51.072;3.712;2023-05-01T13:30:32;18.63;;;16.80;;
22924;SDS011;11628;51.072;3.712;2023-05-01T13:32:58;20.45;;;18.38;;
22924;SDS011;11628;51.072;3.712;2023-05-01T13:35:25;37.53;;;32.63;;
22924;SDS011;11628;51.072;3.712;2023-05-01T13:37:52;21.00;;;18.92;;
22924;SDS011;11628;51.072;3.712;2023-05-01T13:40:18;20.85;;;18.85;;
22924;SDS011;11628;51.072;3.712;2023-05-01T13:42:44;20.88;;;18.77;;
22924;SDS011;11628;51.072;3.712;2023-05-01T13:45:11;19.17;;;17.38;;
22924;SDS011;11628;51.072;3.712;2023-05-01T13:47:40;20.05;;;18.15;;
22924;SDS011;11628;51.072;3.712;2023-05-01T13:50:07;20.98;;;18.92;;
22924;SDS011;11628;51.072;3.712;2023-05-01T13:52:36;19.00;;;17.02;;
22924;SDS011;11628;51.072;3.712;2023-05-01T13:55:07;16.60;;;15.00;;
22924;SDS011;11628;51.072;3.712;2023-05-01T13:57:34;17.38;;;15.68;;
22924;SDS011;11628;51.072;3.712;2023-05-01T14:00:06;17.35;;;15.57;;
22924;SDS011;11628;51.072;3.712;2023-05-01T14:02:33;16.45;;;14.85;;
22924;SDS011;11628;51.072;3.712;2023-05-01T14:05:01;17.98;;;16.27;;
22924;SDS011;11628;51.072;3.712;2023-05-01T14:07:33;16.45;;;14.52;;
22924;SDS011;11628;51.072;3.712;2023-05-01T14:10:13;17.30;;;15.65;;
22924;SDS011;11628;51.072;3.712;2023-05-01T14:12:39;16.25;;;14.63;;
22924;SDS011;11628;51.072;3.712;2023-05-01T14:15:09;17.15;;;15.27;;
22924;SDS011;11628;51.072;3.712;2023-05-01T14:17:36;17.63;;;14.55;;
22924;SDS011;11628;51.072;3.712;2023-05-01T14:20:03;19.35;;;17.55;;
22924;SDS011;11628;51.072;3.712;2023-05-01T14:22:35;12.07;;;10.85;;
22924;SDS011;11628;51.072;3.712;2023-05-01T14:27:43;10.65;;;9.40;;
22924;SDS011;11628;51.072;3.712;2023-05-01T14:30:11;9.05;;;8.15;;
22924;SDS011;11628;51.072;3.712;2023-05-01T14:32:43;12.05;;;9.75;;
22924;SDS011;11628;51.072;3.712;2023-05-01T14:35:08;9.20;;;7.90;;
22924;SDS011;11628;51.072;3.712;2023-05-01T14:37:34;14.90;;;11.55;;
22924;SDS011;11628;51.072;3.712;2023-05-01T14:40:00;17.10;;;13.32;;
22924;SDS011;11628;51.072;3.712;2023-05-01T14:42:28;8.02;;;6.45;;
22924;SDS011;11628;51.072;3.712;2023-05-01T14:44:55;6.85;;;6.15;;
22924;SDS011;11628;51.072;3.712;2023-05-01T14:47:21;7.93;;;5.13;;
22924;SDS011;11628;51.072;3.712;2023-05-01T14:49:49;7.97;;;4.78;;
22924;SDS011;11628;51.072;3.712;2023-05-01T14:52:18;7.15;;;5.32;;
22924;SDS011;11628;51.072;3.712;2023-05-01T14:54:45;9.93;;;7.28;;
22924;SDS011;11628;51.072;3.712;2023-05-01T14:57:11;6.82;;;5.65;;
22924;SDS011;11628;51.072;3.712;2023-05-01T14:59:37;8.68;;;5.53;;
22924;SDS011;11628;51.072;3.712;2023-05-01T15:02:02;8.30;;;5.22;;
22924;SDS011;11628;51.072;3.712;2023-05-01T15:04:28;8.57;;;6.50;;
22924;SDS011;11628;51.072;3.712;2023-05-01T15:06:54;7.53;;;5.72;;
22924;SDS011;11628;51.072;3.712;2023-05-01T15:09:19;11.57;;;8.18;;
22924;SDS011;11628;51.072;3.712;2023-05-01T15:11:45;9.55;;;7.53;;
22924;SDS011;11628;51.072;3.712;2023-05-01T15:14:11;10.88;;;7.43;;
22924;SDS011;11628;51.072;3.712;2023-05-01T15:16:36;12.85;;;6.45;;
22924;SDS011;11628;51.072;3.712;2023-05-01T15:19:02;8.02;;;5.75;;
22924;SDS011;11628;51.072;3.712;2023-05-01T15:21:28;11.05;;;7.13;;
22924;SDS011;11628;51.072;3.712;2023-05-01T15:23:53;10.65;;;6.30;;